Time;durP1;ratioP1;P1;durP2;ratioP2;P2;SDS_P1;SDS_P2;PMS_P1;PMS_P2;Temp;Humidity;BMP_temperature;BMP_pressure;BME280_temperature;BME280_humidity;BME280_pressure;Samples;Min_cycle;Max_cycle;Signal;HPM_P1;HPM_P2
2021/08/08 00:01:56;;;;;;;1.63;1.52;;;17.90;84.10;;;17.83;69.04;94431.78;5018303;28;20196;-84
2021/08/08 00:04:24;;;;;;;3.05;1.80;;;18.00;84.10;;;17.95;68.57;94452.91;5034589;28;20227;-85
2021/08/08 00:06:51;;;;;;;1.90;1.73;;;17.90;84.10;;;17.95;68.97;94440.44;5034968;28;20632;-85
2021/08/08 00:09:19;;;;;;;1.90;1.42;;;17.90;84.20;;;17.94;68.96;94438.78;5018167;28;20662;-85
2021/08/08 00:11:47;;;;;;;1.70;1.60;;;17.90;84.20;;;17.95;69.43;94452.91;5034547;28;20200;-86
2021/08/08 00:14:14;;;;;;;1.92;1.45;;;17.90;84.00;;;17.95;69.23;94460.88;5018255;28;20200;-85
2021/08/08 00:16:41;;;;;;;3.42;1.60;;;17.90;84.00;;;17.91;69.31;94458.66;5001545;28;20256;-85
2021/08/08 00:19:08;;;;;;;1.48;1.30;;;18.00;83.90;;;17.86;69.04;94448.00;5033484;28;20220;-85
2021/08/08 00:21:36;;;;;;;1.55;1.40;;;17.90;83.90;;;17.88;69.13;94458.38;5034089;28;20209;-84
2021/08/08 00:24:04;;;;;;;1.33;1.23;;;18.00;83.90;;;17.87;68.65;94470.84;5017992;28;20207;-85
2021/08/08 00:26:33;;;;;;;2.22;1.52;;;17.90;83.80;;;17.86;68.91;94461.28;5034468;28;20251;-85
2021/08/08 00:29:02;;;;;;;1.45;1.30;;;17.90;83.80;;;17.86;68.96;94460.50;5018156;28;20234;-86
2021/08/08 00:31:30;;;;;;;2.30;1.77;;;17.90;83.80;;;17.81;68.86;94450.63;5017450;28;20266;-85
2021/08/08 00:33:58;;;;;;;1.40;1.30;;;17.90;83.90;;;17.80;69.00;94461.44;5018074;28;20318;-85
2021/08/08 00:36:26;;;;;;;1.45;1.35;;;17.90;83.90;;;17.81;68.91;94458.56;5017748;28;20269;-86
2021/08/08 00:38:56;;;;;;;1.40;1.30;;;17.90;84.00;;;17.82;68.95;94454.06;5017965;28;20291;-85
2021/08/08 00:41:26;;;;;;;2.17;1.40;;;17.90;83.90;;;17.82;68.79;94454.88;5018152;28;20346;-85
2021/08/08 00:43:54;;;;;;;1.60;1.45;;;17.90;83.90;;;17.78;68.70;94456.41;5017689;28;20709;-86
2021/08/08 00:46:22;;;;;;;1.92;1.50;;;17.90;84.00;;;17.80;68.50;94445.53;5050242;28;20216;-86
2021/08/08 00:48:49;;;;;;;1.88;1.48;;;17.80;83.90;;;17.79;68.74;94450.06;5017609;28;20192;-85
2021/08/08 00:51:20;;;;;;;3.30;1.52;;;17.90;84.00;;;17.79;69.06;94450.06;5017734;28;20238;-85
2021/08/08 00:53:49;;;;;;;1.50;1.40;;;17.80;83.90;;;17.74;69.00;94442.84;5001845;28;20208;-86
2021/08/08 00:56:17;;;;;;;1.80;1.70;;;17.90;84.00;;;17.69;68.75;94442.00;5017474;28;20700;-85
2021/08/08 00:58:47;;;;;;;1.60;1.50;;;17.80;84.00;;;17.77;69.20;94455.63;5033732;28;20574;-84
2021/08/08 01:01:24;;;;;;;1.40;1.30;;;17.80;84.10;;;17.76;69.00;94464.63;5034412;28;20220;-85
2021/08/08 01:03:57;;;;;;;1.35;1.20;;;17.80;84.00;;;17.78;68.93;94464.38;5016622;28;20204;-85
2021/08/08 01:06:42;;;;;;;1.50;1.40;;;17.90;84.30;;;17.76;68.78;94479.75;5017188;28;20243;-85
2021/08/08 01:09:13;;;;;;;1.50;1.40;;;17.80;84.10;;;17.75;69.17;94486.88;5017453;28;20223;-86
2021/08/08 01:11:41;;;;;;;2.35;1.58;;;17.90;84.10;;;17.76;69.42;94487.69;5016727;28;20243;-84
2021/08/08 01:14:11;;;;;;;1.45;1.30;;;17.90;84.20;;;17.79;69.13;94499.66;5000838;28;20224;-84
2021/08/08 01:16:48;;;;;;;1.35;1.25;;;17.90;84.20;;;17.77;69.33;94499.88;5002198;28;20188;-84
2021/08/08 01:19:21;;;;;;;1.83;1.40;;;17.90;84.20;;;17.76;69.27;94490.34;5000783;28;20721;-84
2021/08/08 01:21:51;;;;;;;1.48;1.38;;;17.90;84.30;;;17.77;68.82;94489.28;5032865;28;20303;-84
2021/08/08 01:24:19;;;;;;;1.20;1.20;;;17.80;84.20;;;17.79;69.28;94503.09;5016323;28;20196;-84
2021/08/08 01:26:48;;;;;;;1.92;1.30;;;17.90;84.20;;;17.75;69.02;94488.75;5016414;28;20229;-85
2021/08/08 01:29:18;;;;;;;1.30;1.20;;;17.90;84.20;;;17.77;68.85;94486.63;5016998;28;20218;-84
2021/08/08 01:31:54;;;;;;;1.83;1.30;;;17.90;84.20;;;17.79;68.76;94489.06;5000029;28;20319;-84
2021/08/08 01:34:27;;;;;;;1.38;1.27;;;17.80;84.50;;;17.80;69.29;94490.63;5001338;28;20258;-84
2021/08/08 01:36:59;;;;;;;1.60;1.50;;;17.90;84.30;;;17.74;69.18;94481.84;5017013;28;20258;-84
2021/08/08 01:39:31;;;;;;;1.52;1.42;;;17.90;84.30;;;17.81;69.14;94493.06;5016673;28;20311;-85
2021/08/08 01:42:05;;;;;;;1.58;1.48;;;17.90;84.30;;;17.78;68.74;94488.25;5000180;28;20222;-84
2021/08/08 01:44:42;;;;;;;1.30;1.20;;;17.90;84.30;;;17.80;68.50;94486.16;5032552;28;20211;-83
2021/08/08 01:47:13;;;;;;;1.40;1.30;;;17.80;84.30;;;17.81;69.04;94477.16;5016521;28;20192;-83
2021/08/08 01:49:44;;;;;;;1.50;1.40;;;17.80;84.30;;;17.81;68.71;94468.38;5016186;28;20305;-84
2021/08/08 01:52:14;;;;;;;2.47;1.50;;;17.90;84.30;;;17.77;68.37;94468.88;5016592;28;20206;-85
2021/08/08 01:54:47;;;;;;;1.63;1.52;;;17.90;84.30;;;17.83;68.70;94468.94;5016776;28;20226;-85
2021/08/08 01:57:22;;;;;;;2.17;1.30;;;17.90;84.30;;;17.77;68.61;94455.63;5016664;28;20211;-85
2021/08/08 01:59:55;;;;;;;1.67;1.40;;;17.90;84.30;;;17.76;68.53;94455.88;5001085;28;20306;-85
2021/08/08 02:02:22;;;;;;;1.45;1.35;;;17.90;84.20;;;17.80;68.72;94466.75;5031204;28;20204;-84
2021/08/08 02:05:01;;;;;;;1.35;1.20;;;17.90;84.20;;;17.81;68.58;94477.16;5017082;28;20305;-83
2021/08/08 02:07:29;;;;;;;1.40;1.30;;;17.90;84.20;;;17.81;68.89;94474.50;5015509;28;20196;-83
2021/08/08 02:09:56;;;;;;;1.33;1.23;;;17.90;84.20;;;17.85;68.91;94469.50;5031512;28;20216;-84
2021/08/08 02:12:25;;;;;;;1.42;1.27;;;17.90;84.20;;;17.80;68.72;94461.44;5032127;28;20279;-83
2021/08/08 02:14:53;;;;;;;1.33;1.23;;;17.90;84.20;;;17.82;68.39;94467.31;5015538;28;20266;-83
2021/08/08 02:17:33;;;;;;;1.23;1.20;;;17.90;84.10;;;17.86;68.66;94484.38;5017227;28;20200;-84
2021/08/08 02:20:01;;;;;;;1.30;1.20;;;17.90;84.10;;;17.86;68.37;94479.84;5015366;28;20311;-84
2021/08/08 02:22:34;;;;;;;1.15;1.15;;;17.90;84.00;;;17.86;68.76;94487.03;5016778;28;20222;-85
2021/08/08 02:25:03;;;;;;;1.33;1.23;;;17.90;84.00;;;17.84;68.69;94476.63;5031353;28;20254;-85
2021/08/08 02:27:35;;;;;;;1.10;1.10;;;17.90;84.00;;;17.73;68.60;94459.78;5032035;28;20564;-84
2021/08/08 02:30:15;;;;;;;1.27;1.17;;;17.90;84.00;;;17.85;68.90;94485.41;5017197;28;20259;-85
2021/08/08 02:32:42;;;;;;;1.10;1.10;;;17.90;84.00;;;17.86;68.96;94479.06;4999319;28;20207;-85
2021/08/08 02:35:12;;;;;;;1.00;1.00;;;17.90;83.90;;;17.86;68.46;94487.81;4999296;28;20247;-84
2021/08/08 02:37:42;;;;;;;1.10;1.10;;;17.90;83.90;;;17.85;68.27;94493.38;5016630;28;20196;-85
2021/08/08 02:40:11;;;;;;;1.10;1.10;;;17.90;83.80;;;17.85;68.50;94496.81;5031785;28;20242;-85
2021/08/08 02:42:40;;;;;;;1.45;1.20;;;17.90;84.60;;;17.86;68.74;94492.31;5016350;28;20478;-84
2021/08/08 02:45:08;;;;;;;1.35;1.10;;;17.90;83.80;;;17.81;68.56;94493.06;5019042;28;20700;-85
2021/08/08 02:47:35;;;;;;;1.13;1.13;;;17.90;83.90;;;17.82;68.75;94488.53;5019488;28;20550;-85
2021/08/08 02:50:05;;;;;;;1.20;1.10;;;17.90;83.70;;;17.86;68.44;94490.47;5019537;28;20709;-85
2021/08/08 02:52:35;;;;;;;1.55;1.33;;;17.90;83.70;;;17.82;68.92;94484.06;5019394;28;20200;-85
2021/08/08 02:55:06;;;;;;;2.90;1.20;;;17.90;83.60;;;17.81;68.41;94484.28;5019702;28;20274;-84
2021/08/08 02:57:36;;;;;;;1.10;1.05;;;17.90;83.50;;;17.80;68.45;94494.09;5035812;28;20220;-85
2021/08/08 03:00:05;;;;;;;1.20;1.00;;;17.90;83.60;;;17.86;68.11;94510.91;5018836;28;20220;-84
2021/08/08 03:02:34;;;;;;;0.95;0.93;;;17.90;83.70;;;17.88;68.47;94516.72;5035321;28;20672;-84
2021/08/08 03:05:05;;;;;;;0.98;0.98;;;17.90;83.70;;;17.86;68.58;94517.00;5004087;28;20712;-84
2021/08/08 03:07:32;;;;;;;1.17;1.10;;;17.90;83.60;;;17.88;68.20;94520.22;5035213;28;20196;-85
2021/08/08 03:10:04;;;;;;;1.90;1.10;;;17.90;83.60;;;17.89;68.02;94519.16;5019242;28;20220;-85
2021/08/08 03:12:31;;;;;;;0.98;0.98;;;18.00;83.80;;;17.89;68.06;94532.44;5052231;28;20200;-85
2021/08/08 03:14:58;;;;;;;1.42;1.20;;;17.90;83.60;;;17.91;68.13;94537.47;5002502;28;20219;-84
2021/08/08 03:17:26;;;;;;;1.00;1.00;;;17.90;83.50;;;17.87;67.99;94537.16;5018889;28;20212;-85
2021/08/08 03:19:53;;;;;;;1.08;1.08;;;17.90;83.40;;;17.89;68.07;94542.22;5018822;28;20250;-84
2021/08/08 03:22:21;;;;;;;0.90;0.90;;;17.90;83.30;;;17.89;67.95;94553.66;5034852;28;20212;-84
2021/08/08 03:24:48;;;;;;;1.23;1.00;;;17.90;83.20;;;17.88;67.91;94556.53;5018986;28;20220;-85
2021/08/08 03:27:16;;;;;;;1.00;1.00;;;18.00;83.10;;;17.84;67.95;94564.19;5035283;28;20200;-84
2021/08/08 03:29:47;;;;;;;1.05;1.00;;;18.00;83.00;;;17.74;68.22;94556.09;5018153;28;20219;-84
2021/08/08 03:32:14;;;;;;;0.80;0.80;;;17.90;82.80;;;17.78;67.87;94570.47;5018143;28;20238;-84
2021/08/08 03:34:41;;;;;;;1.70;0.90;;;17.90;82.80;;;17.71;68.22;94559.22;5034849;28;20615;-84
2021/08/08 03:37:10;;;;;;;0.80;0.80;;;18.00;82.90;;;17.73;68.31;94568.53;5018367;28;20231;-84
2021/08/08 03:39:39;;;;;;;0.88;0.88;;;17.90;82.90;;;17.67;68.46;94569.53;5018675;28;20220;-84
2021/08/08 03:42:07;;;;;;;0.85;0.75;;;17.80;82.80;;;17.68;68.11;94586.25;5018062;28;20200;-84
2021/08/08 03:44:36;;;;;;;0.70;0.70;;;17.80;82.90;;;17.69;68.21;94593.19;5018402;28;20228;-84
2021/08/08 03:47:03;;;;;;;0.73;0.73;;;17.90;83.00;;;17.68;68.22;94599.53;5034859;28;20188;-84
2021/08/08 03:49:30;;;;;;;0.90;0.90;;;17.80;82.90;;;17.64;68.21;94599.22;5018586;28;20204;-84
2021/08/08 03:51:58;;;;;;;1.67;0.90;;;17.80;82.90;;;17.64;68.27;94603.69;5018013;28;20259;-84
2021/08/08 03:54:28;;;;;;;0.90;0.90;;;17.80;82.90;;;17.56;68.28;94605.72;5018629;28;20298;-84
2021/08/08 03:56:55;;;;;;;0.70;0.70;;;17.80;82.90;;;17.62;68.18;94600.50;5034385;28;20215;-84
2021/08/08 03:59:22;;;;;;;1.15;0.85;;;17.80;82.80;;;17.62;68.09;94609.25;5017885;28;20603;-85
2021/08/08 04:01:49;;;;;;;1.75;0.90;;;17.80;83.60;;;17.62;68.05;94614.53;5018191;28;20575;-85
2021/08/08 04:04:17;;;;;;;0.82;0.80;;;17.80;83.60;;;17.60;67.64;94620.09;5001668;28;20208;-85
2021/08/08 04:06:45;;;;;;;0.80;0.80;;;17.80;82.80;;;17.56;68.07;94618.97;5034608;28;20204;-84
2021/08/08 04:09:13;;;;;;;0.90;0.90;;;17.80;82.70;;;17.59;67.88;94623.78;5018383;28;20223;-85
2021/08/08 04:11:40;;;;;;;0.80;0.80;;;17.70;82.70;;;17.58;68.73;94629.34;5018140;28;20263;-84
2021/08/08 04:14:08;;;;;;;1.00;1.00;;;17.70;82.80;;;17.57;68.40;94631.19;5034025;28;20673;-85
2021/08/08 04:16:35;;;;;;;0.98;0.90;;;17.70;82.80;;;17.57;67.99;94625.88;5017557;28;20220;-85
2021/08/08 04:19:03;;;;;;;0.70;0.70;;;17.70;82.90;;;17.58;67.96;94608.94;5017781;28;20203;-84
2021/08/08 04:21:32;;;;;;;0.70;0.70;;;17.70;83.00;;;17.62;68.27;94633.13;5018230;28;20254;-85
2021/08/08 04:23:59;;;;;;;1.10;0.75;;;17.70;82.90;;;17.55;67.89;94625.34;5017842;28;20207;-85
2021/08/08 04:26:26;;;;;;;1.20;1.10;;;17.70;82.90;;;17.61;68.08;94615.59;5017852;28;20220;-85
2021/08/08 04:28:53;;;;;;;1.00;1.00;;;17.80;83.00;;;17.61;68.14;94626.19;5017575;28;20678;-85
2021/08/08 04:31:21;;;;;;;1.67;0.80;;;17.70;82.90;;;17.54;68.12;94618.44;5017742;28;20706;-85
2021/08/08 04:33:48;;;;;;;0.80;0.80;;;17.70;82.80;;;17.58;68.65;94630.16;5016842;28;20569;-85
2021/08/08 04:36:16;;;;;;;8.07;1.00;;;17.70;83.70;;;17.59;68.56;94623.00;5017395;28;20228;-85
2021/08/08 04:38:43;;;;;;;0.70;0.70;;;17.70;83.70;;;17.58;68.26;94632.00;5034106;28;20229;-85
2021/08/08 04:41:11;;;;;;;1.45;0.88;;;17.70;82.90;;;17.58;68.16;94632.78;5017825;28;20246;-86
2021/08/08 04:43:38;;;;;;;1.00;1.00;;;17.80;83.00;;;17.59;68.63;94633.63;5033966;28;20282;-85
2021/08/08 04:46:05;;;;;;;0.82;0.82;;;17.80;83.00;;;17.60;68.80;94637.84;5017232;28;20639;-85
2021/08/08 04:48:33;;;;;;;1.10;0.98;;;17.70;82.90;;;17.52;68.64;94647.03;5017801;28;20196;-85
2021/08/08 04:51:02;;;;;;;0.88;0.88;;;17.70;82.90;;;17.60;68.75;94648.44;5033573;28;20622;-85
2021/08/08 04:53:30;;;;;;;1.33;1.23;;;17.70;82.90;;;17.57;68.60;94638.34;5017606;28;20244;-85
2021/08/08 04:56:00;;;;;;;0.90;0.90;;;17.80;82.90;;;17.57;68.33;94649.75;5017263;28;20395;-85
2021/08/08 04:58:30;;;;;;;0.90;0.90;;;17.70;82.90;;;17.60;68.47;94640.50;5017877;28;20215;-86
2021/08/08 05:00:58;;;;;;;0.90;0.90;;;17.70;83.00;;;17.64;68.48;94638.16;5001161;28;20212;-86
2021/08/08 05:03:27;;;;;;;0.98;0.98;;;17.70;83.10;;;17.64;68.12;94636.34;5017723;28;20295;-86
2021/08/08 05:05:54;;;;;;;1.15;1.10;;;17.70;83.10;;;17.70;67.97;94645.16;5033330;28;20216;-86
2021/08/08 05:08:21;;;;;;;1.92;1.15;;;17.70;83.10;;;17.73;68.62;94639.38;5017378;28;20204;-85
2021/08/08 05:10:49;;;;;;;0.90;0.90;;;17.80;83.20;;;17.75;68.27;94638.09;5016926;28;20231;-86
2021/08/08 05:13:16;;;;;;;0.90;0.90;;;17.80;83.20;;;17.75;68.62;94640.72;5033484;28;20234;-85
2021/08/08 05:15:43;;;;;;;1.35;1.20;;;17.80;83.20;;;17.79;68.52;94658.84;5016711;28;20700;-85
2021/08/08 05:18:10;;;;;;;0.93;0.93;;;17.80;83.20;;;17.80;68.66;94673.69;5033806;28;20220;-85
2021/08/08 05:20:37;;;;;;;1.00;1.00;;;17.90;83.20;;;17.79;68.37;94672.88;5049639;28;20229;-84
2021/08/08 05:23:06;;;;;;;1.05;1.00;;;17.80;83.00;;;17.79;68.52;94672.09;5016790;28;20219;-85
2021/08/08 05:25:34;;;;;;;1.27;1.20;;;17.90;83.00;;;17.75;68.15;94672.56;5033057;28;20243;-84
2021/08/08 05:28:01;;;;;;;1.00;1.00;;;17.90;83.00;;;17.74;68.27;94660.34;5034227;28;20246;-85
2021/08/08 05:30:29;;;;;;;1.10;1.10;;;17.90;83.00;;;17.79;68.64;94672.09;5016993;28;20223;-85
2021/08/08 05:32:56;;;;;;;4.20;1.00;;;17.80;83.00;;;17.77;68.51;94674.97;5016624;28;20228;-85
2021/08/08 05:35:25;;;;;;;1.30;1.20;;;17.90;83.00;;;17.78;68.69;94665.97;5016981;28;20594;-86
2021/08/08 05:37:52;;;;;;;1.00;0.98;;;17.90;83.00;;;17.79;68.53;94659.63;5016657;28;20269;-86
2021/08/08 05:40:20;;;;;;;1.20;1.10;;;17.80;83.10;;;17.83;69.05;94676.66;5033015;28;20212;-85
2021/08/08 05:42:50;;;;;;;1.52;1.00;;;17.90;83.30;;;17.91;68.41;94672.78;5017084;28;20208;-86
2021/08/08 05:45:22;;;;;;;1.10;1.10;;;17.90;83.40;;;18.00;68.70;94663.38;5000445;28;20215;-85
2021/08/08 05:47:51;;;;;;;1.05;1.05;;;17.90;84.50;;;18.11;69.05;94663.53;5015911;28;20207;-85
2021/08/08 05:50:24;;;;;;;2.05;1.20;;;18.00;83.70;;;18.19;68.44;94668.44;5017376;28;20723;-86
2021/08/08 05:52:52;;;;;;;1.42;1.33;;;18.10;83.80;;;18.21;68.91;94653.88;5016433;28;20259;-85
2021/08/08 05:55:20;;;;;;;1.30;1.20;;;18.10;83.80;;;18.27;69.18;94657.38;5016025;28;20216;-85
2021/08/08 05:57:47;;;;;;;1.27;1.17;;;18.20;83.80;;;18.31;68.98;94660.34;5016376;28;20574;-85
2021/08/08 06:00:17;;;;;;;1.05;1.05;;;18.30;83.80;;;18.34;68.35;94675.78;5016598;28;20262;-85
2021/08/08 06:02:52;;;;;;;1.48;1.20;;;18.30;83.70;;;18.32;68.74;94691.16;5017059;28;20286;-85
2021/08/08 06:05:23;;;;;;;1.23;1.15;;;18.40;83.60;;;18.34;68.17;94689.06;5016567;28;20302;-86
2021/08/08 06:07:51;;;;;;;1.67;1.00;;;18.40;83.40;;;18.32;68.61;94677.88;5015939;28;20199;-85
2021/08/08 06:10:19;;;;;;;1.30;1.20;;;18.40;83.20;;;18.30;68.41;94688.75;5016432;28;20250;-85
2021/08/08 06:12:47;;;;;;;1.35;1.25;;;18.40;83.10;;;18.21;68.43;94684.91;5016053;28;20232;-85
2021/08/08 06:15:14;;;;;;;1.17;1.10;;;18.40;83.10;;;18.18;68.49;94677.44;5031024;28;20212;-85
2021/08/08 06:17:42;;;;;;;1.17;1.10;;;18.40;83.00;;;18.16;68.57;94682.19;5024744;28;20196;-85
2021/08/08 06:20:10;;;;;;;1.65;1.20;;;18.40;83.10;;;18.11;68.78;94682.13;5005094;28;20637;-85
2021/08/08 06:22:41;;;;;;;1.45;1.20;;;18.30;83.10;;;18.12;68.99;94683.72;5020165;28;20227;-85
2021/08/08 06:25:09;;;;;;;1.20;1.20;;;18.30;83.00;;;18.15;68.89;94676.09;5041848;28;20205;-86
2021/08/08 06:27:36;;;;;;;1.92;1.30;;;18.30;83.10;;;18.10;68.62;94665.38;4996049;28;20692;-85
2021/08/08 06:30:05;;;;;;;1.13;1.13;;;18.20;83.10;;;18.18;68.60;94683.53;4996218;28;20216;-86
2021/08/08 06:32:32;;;;;;;2.30;1.10;;;18.30;83.20;;;18.18;68.66;94683.53;4979459;28;20233;-86
2021/08/08 06:35:05;;;;;;;1.30;1.20;;;18.20;83.10;;;18.18;69.40;94688.06;5028929;28;20224;-86
2021/08/08 06:37:33;;;;;;;1.27;1.25;;;18.30;83.20;;;18.18;68.45;94703.97;4996258;28;20228;-86
2021/08/08 06:40:01;;;;;;;1.40;1.30;;;18.30;83.20;;;18.07;68.57;94682.59;5012435;28;20239;-86
2021/08/08 06:42:28;;;;;;;1.33;1.23;;;18.30;83.30;;;18.22;68.37;94691.81;4995293;28;20204;-85
2021/08/08 06:44:57;;;;;;;1.10;1.10;;;18.30;83.30;;;18.24;68.51;94698.47;4979934;28;20303;-84
2021/08/08 06:47:25;;;;;;;1.42;1.33;;;18.30;83.30;;;18.26;68.89;94710.72;4995513;28;20651;-84
2021/08/08 06:49:52;;;;;;;1.33;1.20;;;18.30;83.30;;;18.28;69.03;94716.59;5011528;28;20225;-83
2021/08/08 06:52:19;;;;;;;1.40;1.30;;;18.40;83.50;;;18.33;69.28;94709.47;5011272;28;20232;-84
2021/08/08 06:54:47;;;;;;;2.65;1.20;;;18.40;83.70;;;18.37;69.07;94692.03;4995185;28;20226;-83
2021/08/08 06:57:28;;;;;;;1.55;1.45;;;18.30;83.60;;;18.47;68.78;94699.31;4994755;28;20311;-83
2021/08/08 07:00:02;;;;;;;1.52;1.13;;;18.40;83.40;;;18.52;68.40;94703.91;4995994;28;20306;-82
2021/08/08 07:02:29;;;;;;;1.42;1.10;;;18.40;83.50;;;18.54;68.06;94712.41;5011221;28;20204;-83
2021/08/08 07:04:57;;;;;;;1.38;1.27;;;18.50;83.50;;;18.60;68.86;94708.75;4994971;28;20230;-82
2021/08/08 07:07:25;;;;;;;1.23;1.20;;;18.50;83.60;;;18.61;68.87;94699.75;4994999;28;20247;-81
2021/08/08 07:09:53;;;;;;;1.50;1.40;;;18.60;83.90;;;18.75;68.56;94717.97;5012318;28;20247;-82
2021/08/08 07:12:21;;;;;;;1.50;1.40;;;18.70;83.90;;;18.79;68.90;94722.53;4994693;28;20225;-83
2021/08/08 07:14:49;;;;;;;2.13;1.80;;;18.70;84.00;;;18.89;69.08;94732.47;4995568;28;20690;-83
2021/08/08 07:17:17;;;;;;;1.98;1.33;;;18.70;84.00;;;18.94;68.89;94727.25;5010876;28;20205;-83
2021/08/08 07:19:44;;;;;;;1.90;1.25;;;18.80;84.00;;;18.94;68.38;94721.94;4994895;28;20236;-83
2021/08/08 07:22:12;;;;;;;1.38;1.27;;;18.80;83.80;;;19.01;68.49;94727.06;4994819;28;20614;-83
2021/08/08 07:24:40;;;;;;;1.45;1.35;;;18.90;83.70;;;19.05;68.21;94728.16;5011280;28;20571;-82
2021/08/08 07:27:09;;;;;;;1.45;1.10;;;19.00;83.40;;;19.00;67.97;94726.25;4994702;28;20762;-82
2021/08/08 07:29:36;;;;;;;1.50;1.40;;;19.00;83.20;;;19.01;67.99;94735.03;4997122;28;20251;-82
2021/08/08 07:32:06;;;;;;;1.30;1.20;;;19.00;82.80;;;18.93;68.24;94733.63;4983180;28;20603;-84
2021/08/08 07:34:35;;;;;;;1.42;1.30;;;19.00;82.80;;;18.92;67.94;94741.84;5014408;28;20197;-85
2021/08/08 07:37:02;;;;;;;1.67;1.33;;;19.10;82.60;;;18.87;67.79;94748.69;5015073;28;20192;-84
2021/08/08 07:39:32;;;;;;;2.45;1.50;;;19.00;82.60;;;18.83;68.40;94736.91;5014645;28;20291;-84
2021/08/08 07:41:59;;;;;;;1.42;1.33;;;19.00;82.70;;;18.84;68.04;94738.53;5014813;28;20641;-84
2021/08/08 07:44:26;;;;;;;1.40;1.30;;;18.90;82.80;;;18.86;68.50;94731.13;4998847;28;20201;-84
2021/08/08 07:46:53;;;;;;;1.35;1.25;;;19.00;83.00;;;18.90;68.31;94718.16;5014896;28;20685;-84
2021/08/08 07:49:21;;;;;;;1.48;1.38;;;19.00;83.90;;;18.92;68.15;94713.44;4998747;28;20204;-85
2021/08/08 07:51:50;;;;;;;1.38;1.27;;;18.90;83.10;;;18.97;68.09;94707.34;4982269;28;20227;-84
2021/08/08 07:54:19;;;;;;;1.30;1.20;;;19.00;83.10;;;19.03;67.88;94706.38;4982819;28;20197;-85
2021/08/08 07:56:47;;;;;;;1.40;1.30;;;19.00;83.00;;;19.00;68.29;94709.50;5030572;28;20189;-84
2021/08/08 07:59:15;;;;;;;1.50;1.40;;;19.10;83.10;;;19.12;68.68;94727.97;4998492;28;20205;-85
2021/08/08 08:01:42;;;;;;;1.75;1.50;;;19.10;84.10;;;19.18;68.17;94727.78;5014264;28;20653;-85
2021/08/08 08:04:10;;;;;;;1.60;1.50;;;19.10;83.40;;;19.26;68.38;94726.53;4998411;28;20223;-84
2021/08/08 08:06:40;;;;;;;1.75;1.60;;;19.20;83.60;;;19.39;68.01;94748.47;5014797;28;20667;-84
2021/08/08 08:09:09;;;;;;;1.67;1.50;;;19.20;83.70;;;19.41;68.19;94749.00;5014837;28;20205;-85
2021/08/08 08:11:41;;;;;;;1.45;1.35;;;19.30;84.60;;;19.52;68.11;94756.81;5014238;28;20220;-85
2021/08/08 08:14:10;;;;;;;1.50;1.40;;;19.30;83.40;;;19.61;67.96;94759.81;5001683;28;20200;-84
2021/08/08 08:16:37;;;;;;;1.50;1.40;;;19.40;83.60;;;19.76;68.35;94751.19;5011384;28;20283;-84
2021/08/08 08:19:05;;;;;;;1.50;1.40;;;19.50;83.80;;;19.87;68.01;94751.28;4998241;28;20213;-85
2021/08/08 08:21:33;;;;;;;1.60;1.40;;;19.60;83.70;;;19.93;67.60;94744.94;4998066;28;20224;-84
2021/08/08 08:24:01;;;;;;;1.40;1.30;;;19.70;83.60;;;20.00;67.73;94745.53;5031169;28;20226;-84
2021/08/08 08:26:28;;;;;;;1.40;1.30;;;19.80;83.50;;;20.04;67.72;94746.63;5035170;28;20211;-85
2021/08/08 08:28:55;;;;;;;1.40;1.30;;;19.80;83.30;;;20.08;67.13;94753.06;4997807;28;20228;-85
2021/08/08 08:31:23;;;;;;;1.50;1.40;;;19.90;83.10;;;20.06;67.39;94752.50;5013913;28;20235;-85
2021/08/08 08:33:50;;;;;;;1.90;1.40;;;19.90;82.70;;;20.06;66.84;94757.03;5034063;28;20666;-85
2021/08/08 08:36:18;;;;;;;1.60;1.38;;;20.00;82.50;;;19.95;66.59;94756.94;5033882;28;20222;-85
2021/08/08 08:38:45;;;;;;;1.20;1.20;;;20.00;82.20;;;19.93;67.06;94759.09;5017465;28;20206;-85
2021/08/08 08:41:16;;;;;;;1.33;1.23;;;20.00;81.80;;;19.88;66.56;94772.31;5016590;28;20238;-85
2021/08/08 08:43:44;;;;;;;1.25;1.25;;;19.90;81.70;;;19.81;66.92;94772.53;5028699;28;20368;-86
2021/08/08 08:46:14;;;;;;;1.55;1.40;;;19.90;81.70;;;19.77;66.84;94773.28;5012619;28;20315;-85
2021/08/08 08:48:43;;;;;;;1.42;1.33;;;19.80;81.60;;;19.70;66.88;94770.03;5006042;28;20258;-84
2021/08/08 08:51:16;;;;;;;1.58;1.40;;;19.80;81.60;;;19.66;67.37;94775.03;4991744;28;20229;-85
2021/08/08 08:53:46;;;;;;;1.40;1.30;;;19.80;81.80;;;19.63;67.18;94767.59;5015717;28;20228;-85
2021/08/08 08:56:14;;;;;;;1.50;1.40;;;19.80;82.00;;;19.60;67.91;94755.56;5023346;28;20691;-85
2021/08/08 08:58:42;;;;;;;1.30;1.20;;;19.70;82.30;;;19.74;67.52;94771.09;5007306;28;20270;-84
2021/08/08 09:01:11;;;;;;;2.05;1.38;;;19.70;83.40;;;19.85;67.71;94778.19;5019759;28;20307;-85
2021/08/08 09:03:40;;;;;;;1.60;1.50;;;19.80;83.20;;;19.93;68.21;94783.03;5033047;28;20663;-86
2021/08/08 09:06:09;;;;;;;1.55;1.42;;;19.80;83.60;;;20.07;68.25;94778.06;5017187;28;20311;-85
2021/08/08 09:08:37;;;;;;;1.30;1.20;;;19.90;83.60;;;20.26;68.65;94796.31;5032394;28;20192;-85
2021/08/08 09:11:08;;;;;;;3.08;1.48;;;20.00;83.80;;;20.40;67.39;94788.69;5031829;28;20594;-86
2021/08/08 09:13:55;;;;;;;1.58;1.42;;;20.10;83.40;;;20.52;67.81;94788.47;5017512;28;20231;-86
2021/08/08 09:16:27;;;;;;;2.10;1.48;;;20.20;83.30;;;20.69;67.95;94791.78;5033082;28;20450;-85
2021/08/08 09:18:58;;;;;;;2.97;1.30;;;20.30;83.80;;;20.91;67.85;94794.34;5018391;28;20204;-86
2021/08/08 09:21:29;;;;;;;1.40;1.30;;;20.40;83.80;;;21.14;67.42;94791.47;5033452;28;20240;-85
2021/08/08 09:24:00;;;;;;;1.52;1.20;;;20.60;84.10;;;21.35;67.20;94800.34;5033052;28;20238;-85
2021/08/08 09:26:34;;;;;;;2.13;1.38;;;20.80;83.90;;;21.44;66.18;94804.91;5017248;28;20239;-85
2021/08/08 09:29:23;;;;;;;1.00;1.00;;;20.90;82.80;;;21.51;65.90;94817.22;5017488;28;20199;-86
2021/08/08 09:31:50;;;;;;;2.38;1.40;;;21.10;82.50;;;21.51;64.94;94814.56;5032924;28;20287;-87
2021/08/08 09:34:30;;;;;;;1.23;1.23;;;21.20;82.60;;;21.52;65.34;94795.59;5033137;28;20551;-86
2021/08/08 09:37:03;;;;;;;1.35;1.23;;;21.20;81.50;;;21.58;65.43;94805.25;5016573;28;20210;-86
2021/08/08 09:39:35;;;;;;;1.75;1.10;;;21.40;81.80;;;21.69;65.84;94811.41;5033036;28;20259;-86
2021/08/08 09:42:16;;;;;;;1.67;1.45;;;21.30;82.60;;;21.87;65.17;94819.97;5016387;28;20226;-87
2021/08/08 09:45:05;;;;;;;2.40;1.52;;;21.50;82.20;;;22.00;65.11;94819.44;5032701;28;20224;-85
2021/08/08 09:47:46;;;;;;;1.55;1.40;;;21.50;82.00;;;22.15;64.81;94829.31;5032186;28;20220;-86
2021/08/08 09:50:23;;;;;;;1.35;1.25;;;21.70;81.50;;;22.33;64.74;94827.22;5032587;28;20253;-85
2021/08/08 09:52:56;;;;;;;1.83;1.13;;;21.80;82.10;;;22.51;65.18;94829.34;5032332;28;20238;-87
2021/08/08 09:55:46;;;;;;;2.47;1.17;;;21.90;82.10;;;22.71;64.62;94825.03;5032063;28;20220;-84
2021/08/08 09:58:21;;;;;;;1.20;1.10;;;22.10;81.70;;;22.85;63.53;94822.59;5031676;28;20278;-84
2021/08/08 10:00:50;;;;;;;1.52;1.23;;;22.30;80.90;;;22.93;64.13;94813.22;5015602;28;20238;-84
2021/08/08 10:03:19;;;;;;;1.33;1.20;;;22.40;81.10;;;23.02;63.75;94815.06;5031502;28;20202;-83
2021/08/08 10:05:47;;;;;;;1.70;1.08;;;22.50;80.70;;;23.08;63.79;94797.09;5015513;28;20334;-82
2021/08/08 10:08:17;;;;;;;1.65;1.23;;;22.70;80.50;;;23.26;63.35;94824.38;5031676;28;20718;-83
2021/08/08 10:10:47;;;;;;;1.30;1.20;;;22.70;80.40;;;23.36;62.76;94829.66;5015314;28;20325;-84
2021/08/08 10:13:31;;;;;;;1.75;1.42;;;22.80;80.10;;;23.44;62.23;94814.94;5031606;28;20313;-84
2021/08/08 10:15:59;;;;;;;1.73;1.20;;;22.90;79.20;;;23.56;63.06;94815.38;5031535;28;20246;-84
2021/08/08 10:18:35;;;;;;;1.38;1.20;;;23.00;80.10;;;23.69;62.37;94810.50;5015371;28;20277;-85
2021/08/08 10:21:04;;;;;;;1.30;1.20;;;23.10;80.20;;;23.73;61.06;94815.03;5031478;28;20220;-84
2021/08/08 10:23:35;;;;;;;1.40;1.20;;;23.20;79.10;;;23.64;60.75;94800.59;5015278;28;20651;-81
2021/08/08 10:26:04;;;;;;;1.27;1.17;;;23.30;78.10;;;23.54;61.30;94798.78;5031718;28;20216;-84
2021/08/08 10:28:32;;;;;;;1.00;1.00;;;23.20;77.70;;;23.47;61.05;94807.16;5015265;28;20196;-84
2021/08/08 10:31:01;;;;;;;1.13;1.02;;;23.20;77.80;;;23.45;60.60;94825.34;5031301;28;20228;-84